createdAt,value
2023-11-18T00:01:18.727Z,20.37
2023-11-18T00:02:51.294Z,23.97
2023-11-18T00:04:23.153Z,19.00
2023-11-18T00:05:55.200Z,18.50
2023-11-18T00:07:26.937Z,25.50
2023-11-18T00:08:58.690Z,18.30
2023-11-18T00:10:30.511Z,21.97
2023-11-18T00:13:51.280Z,22.00
2023-11-18T00:15:23.140Z,22.70
2023-11-18T00:16:54.924Z,25.30
2023-11-18T00:18:26.654Z,22.17
2023-11-18T00:19:58.521Z,23.30
2023-11-18T00:21:30.345Z,23.20
2023-11-18T00:23:05.547Z,23.80
2023-11-18T00:24:37.284Z,25.20
2023-11-18T00:26:09.544Z,24.17
2023-11-18T00:27:41.596Z,22.83
2023-11-18T00:29:13.499Z,22.33
2023-11-18T00:30:45.300Z,22.77
2023-11-18T00:32:17.703Z,22.00
2023-11-18T00:33:50.479Z,16.90
2023-11-18T00:35:22.176Z,26.90
2023-11-18T00:36:54.112Z,23.70
2023-11-18T00:38:25.966Z,24.87
2023-11-18T00:39:58.088Z,23.70
2023-11-18T00:41:29.812Z,18.10
2023-11-18T00:43:01.556Z,23.90
2023-11-18T00:44:33.290Z,19.10
2023-11-18T00:46:06.206Z,22.13
2023-11-18T00:49:29.516Z,25.23
2023-11-18T00:51:01.289Z,20.40
2023-11-18T00:52:33.788Z,19.67
2023-11-18T00:54:10.716Z,21.10
2023-11-18T00:55:42.869Z,18.37
2023-11-18T00:57:14.695Z,22.63
2023-11-18T00:58:46.477Z,21.40
2023-11-18T01:00:22.620Z,23.80
2023-11-18T01:01:54.395Z,18.50
2023-11-18T01:03:26.426Z,17.00
2023-11-18T01:04:58.194Z,21.40
2023-11-18T01:06:30.103Z,20.13
2023-11-18T01:08:02.629Z,25.07
2023-11-18T01:09:39.580Z,18.83
2023-11-18T01:11:11.618Z,19.77
2023-11-18T01:12:46.884Z,24.67
2023-11-18T01:16:08.359Z,22.70
2023-11-18T01:17:40.472Z,21.13
2023-11-18T01:19:12.287Z,20.77
2023-11-18T01:20:44.650Z,19.83
2023-11-18T01:22:16.459Z,18.87
2023-11-18T01:23:49.928Z,21.97
2023-11-18T01:25:21.952Z,20.23
2023-11-18T01:26:53.705Z,17.40
2023-11-18T01:28:27.350Z,27.63
2023-11-18T01:29:59.148Z,20.80
2023-11-18T01:31:40.143Z,21.80
2023-11-18T01:33:19.641Z,23.07
2023-11-18T01:34:51.696Z,23.60
2023-11-18T01:36:24.214Z,21.57
2023-11-18T01:37:56.331Z,22.50
2023-11-18T01:39:28.813Z,22.80
2023-11-18T01:41:01.531Z,22.93
2023-11-18T01:44:29.174Z,19.70
2023-11-18T01:46:04.051Z,18.90
2023-11-18T01:47:35.871Z,19.33
2023-11-18T01:49:09.226Z,21.10
2023-11-18T01:50:45.623Z,22.50
2023-11-18T01:52:17.767Z,21.60
2023-11-18T01:53:51.209Z,19.67
2023-11-18T01:55:23.044Z,19.80
2023-11-18T01:56:54.896Z,20.30
2023-11-18T01:58:28.409Z,24.27
2023-11-18T02:00:00.431Z,19.93
2023-11-18T02:01:35.166Z,17.00
2023-11-18T02:03:07.701Z,18.57
2023-11-18T02:04:40.089Z,17.87
2023-11-18T02:06:13.704Z,21.57
2023-11-18T02:08:02.936Z,20.47
2023-11-18T02:09:35.984Z,21.03
2023-11-18T02:11:32.216Z,17.27
2023-11-18T02:14:58.931Z,18.90
2023-11-18T02:16:32.815Z,19.60
2023-11-18T02:18:10.622Z,19.70
2023-11-18T02:19:44.354Z,18.60
2023-11-18T02:21:24.397Z,18.43
2023-11-18T02:22:56.522Z,17.00
2023-11-18T02:24:37.546Z,16.40
2023-11-18T02:26:10.838Z,17.63
2023-11-18T02:27:43.925Z,19.03
2023-11-18T02:29:15.693Z,23.57
2023-11-18T02:30:50.252Z,18.87
2023-11-18T02:32:31.368Z,16.90
2023-11-18T02:34:17.864Z,16.37
2023-11-18T02:35:54.416Z,18.33
2023-11-18T02:37:28.421Z,18.57
2023-11-18T02:39:11.995Z,16.33
2023-11-18T02:40:45.546Z,21.87
2023-11-18T02:42:17.749Z,16.20
2023-11-18T02:43:51.302Z,16.43
2023-11-18T02:45:24.889Z,21.87
2023-11-18T02:46:56.693Z,22.00
2023-11-18T02:48:29.462Z,19.37
2023-11-18T02:50:06.318Z,17.70
2023-11-18T02:51:40.393Z,16.97
2023-11-18T02:53:12.354Z,20.63
2023-11-18T02:54:44.077Z,15.30
2023-11-18T02:56:16.017Z,24.03
2023-11-18T02:57:48.017Z,18.30
2023-11-18T02:59:19.799Z,19.40
2023-11-18T03:00:51.591Z,19.70
2023-11-18T03:02:23.443Z,19.40
2023-11-18T03:03:55.980Z,16.57
2023-11-18T03:05:28.561Z,17.53
2023-11-18T03:07:00.993Z,18.40
2023-11-18T03:08:32.823Z,18.47
2023-11-18T03:10:23.984Z,22.20
2023-11-18T03:11:56.042Z,19.83
2023-11-18T03:13:27.781Z,20.60
2023-11-18T03:15:00.389Z,19.73
2023-11-18T03:16:32.222Z,20.87
2023-11-18T03:18:04.257Z,18.00
2023-11-18T03:19:36.388Z,19.67
2023-11-18T03:21:14.425Z,18.40
2023-11-18T03:22:50.922Z,20.33
2023-11-18T03:24:22.919Z,17.30
2023-11-18T03:25:54.769Z,17.13
2023-11-18T03:27:26.612Z,18.03
2023-11-18T03:28:58.388Z,17.37
2023-11-18T03:30:30.177Z,19.90
2023-11-18T03:32:02.070Z,19.97
2023-11-18T03:33:34.279Z,16.47
2023-11-18T03:35:10.184Z,17.87
2023-11-18T03:36:42.249Z,19.50
2023-11-18T03:38:13.974Z,17.50
2023-11-18T03:39:46.807Z,19.00
2023-11-18T03:41:27.027Z,16.77
2023-11-18T03:42:59.660Z,19.80
2023-11-18T03:44:31.413Z,19.47
2023-11-18T03:46:03.355Z,17.47
2023-11-18T03:47:35.263Z,19.07
2023-11-18T03:49:07.075Z,18.43
2023-11-18T03:50:38.799Z,17.93
2023-11-18T03:52:10.593Z,19.47
2023-11-18T03:53:43.367Z,16.27
2023-11-18T03:55:15.110Z,18.70
2023-11-18T03:56:46.859Z,18.13
2023-11-18T03:58:20.262Z,17.47
2023-11-18T03:59:52.086Z,21.73
2023-11-18T04:01:30.555Z,19.40
2023-11-18T04:03:02.389Z,19.03
2023-11-18T04:04:34.675Z,17.97
2023-11-18T04:06:09.102Z,17.67
2023-11-18T04:07:43.050Z,23.17
2023-11-18T04:11:08.074Z,22.07
2023-11-18T04:12:39.888Z,19.30
2023-11-18T04:14:12.694Z,18.30
2023-11-18T04:15:46.388Z,20.80
2023-11-18T04:17:18.358Z,22.07
2023-11-18T04:18:50.230Z,21.57
2023-11-18T04:20:22.083Z,21.47
2023-11-18T04:21:54.263Z,20.90
2023-11-18T04:23:26.093Z,20.00
2023-11-18T04:24:58.060Z,22.07
2023-11-18T04:26:29.785Z,20.60
2023-11-18T04:28:01.544Z,20.00
2023-11-18T04:29:33.287Z,22.00
2023-11-18T04:31:08.919Z,25.00
2023-11-18T04:32:43.558Z,24.80
2023-11-18T04:34:15.693Z,26.27
2023-11-18T04:35:48.028Z,34.27
2023-11-18T04:37:19.790Z,29.30
2023-11-18T04:38:51.538Z,30.97
2023-11-18T04:40:24.190Z,29.33
2023-11-18T04:41:57.312Z,28.33
2023-11-18T04:45:17.740Z,29.57
2023-11-18T04:46:49.667Z,30.10
2023-11-18T04:48:22.418Z,32.47
2023-11-18T04:49:54.968Z,28.97
2023-11-18T04:51:26.806Z,30.27
2023-11-18T04:52:58.761Z,33.37
2023-11-18T04:54:30.532Z,32.53
2023-11-18T04:56:03.038Z,30.70
2023-11-18T04:57:34.792Z,31.50
2023-11-18T04:59:06.944Z,34.40
2023-11-18T05:00:42.827Z,31.80
2023-11-18T05:02:14.641Z,36.30
2023-11-18T05:03:46.534Z,30.47
2023-11-18T05:05:19.165Z,36.73
2023-11-18T05:06:52.490Z,38.10
2023-11-18T05:08:24.294Z,40.63
2023-11-18T05:09:56.098Z,38.37
2023-11-18T05:11:28.432Z,33.60
2023-11-18T05:13:00.467Z,38.53
2023-11-18T05:14:33.516Z,41.03
2023-11-18T05:17:52.001Z,38.30
2023-11-18T05:19:23.768Z,36.63
2023-11-18T05:20:55.656Z,37.97
2023-11-18T05:22:27.395Z,38.23
2023-11-18T05:23:59.137Z,35.70
2023-11-18T05:25:30.860Z,38.37
2023-11-18T05:27:02.857Z,38.47
2023-11-18T05:28:34.991Z,37.77
2023-11-18T05:30:11.402Z,35.93
2023-11-18T05:31:43.202Z,38.00
2023-11-18T05:33:18.831Z,35.80
2023-11-18T05:34:54.679Z,37.37
2023-11-18T05:36:31.828Z,34.37
2023-11-18T05:38:07.420Z,35.00
2023-11-18T05:39:44.872Z,36.30
2023-11-18T05:43:16.952Z,35.07
2023-11-18T05:44:48.718Z,40.70
2023-11-18T05:46:25.513Z,30.70
2023-11-18T05:47:58.246Z,38.73
2023-11-18T05:49:30.043Z,36.40
2023-11-18T05:51:01.820Z,37.50
2023-11-18T05:52:33.848Z,34.97
2023-11-18T05:54:06.214Z,37.20
2023-11-18T05:55:37.953Z,36.73
2023-11-18T05:57:09.716Z,38.10
2023-11-18T05:58:41.592Z,33.20
2023-11-18T06:00:20.792Z,34.00
2023-11-18T06:01:58.076Z,37.70
2023-11-18T06:03:29.949Z,36.53
2023-11-18T06:05:04.868Z,34.27
2023-11-18T06:06:38.184Z,43.63
2023-11-18T06:12:11.512Z,32.37
2023-11-18T06:13:45.090Z,38.97
2023-11-18T06:15:19.905Z,37.10
2023-11-18T06:16:52.023Z,41.40
2023-11-18T06:20:18.262Z,48.90
2023-11-18T06:21:57.352Z,41.73
2023-11-18T06:23:29.312Z,39.30
2023-11-18T06:25:02.047Z,38.70
2023-11-18T06:26:37.286Z,37.47
2023-11-18T06:28:09.251Z,41.57
2023-11-18T06:29:41.466Z,36.33
2023-11-18T06:33:06.449Z,30.83
2023-11-18T06:34:38.498Z,34.80
2023-11-18T06:36:23.594Z,35.97
2023-11-18T06:37:55.643Z,33.97
2023-11-18T06:39:30.732Z,34.10
2023-11-18T06:43:03.846Z,30.07
2023-11-18T06:44:36.024Z,29.97
2023-11-18T06:46:13.957Z,34.70
2023-11-18T06:47:46.555Z,30.73
2023-11-18T06:49:19.780Z,33.17
2023-11-18T06:50:51.742Z,32.80
2023-11-18T06:52:23.514Z,28.30
2023-11-18T06:53:56.338Z,44.10
2023-11-18T06:55:28.258Z,30.00
2023-11-18T06:57:00.000Z,32.77
2023-11-18T06:58:31.790Z,32.43
2023-11-18T07:00:09.503Z,32.57
2023-11-18T07:01:43.601Z,29.83
2023-11-18T07:03:15.870Z,32.03
2023-11-18T07:04:47.673Z,30.53
2023-11-18T07:06:23.878Z,29.17
2023-11-18T07:07:55.905Z,28.43
2023-11-18T07:09:28.028Z,29.37
2023-11-18T07:11:07.601Z,29.77
2023-11-18T07:12:39.617Z,28.60
2023-11-18T07:14:12.535Z,26.50
2023-11-18T07:15:44.475Z,29.60
2023-11-18T07:17:16.250Z,28.57
2023-11-18T07:18:48.045Z,31.40
2023-11-18T07:22:07.681Z,28.47
2023-11-18T07:23:39.535Z,27.77
2023-11-18T07:25:11.387Z,31.13
2023-11-18T07:26:43.344Z,27.87
2023-11-18T07:28:16.111Z,28.80
2023-11-18T07:29:48.505Z,28.30
2023-11-18T07:31:20.397Z,28.80
2023-11-18T07:32:52.760Z,24.00
2023-11-18T07:34:24.855Z,29.70
2023-11-18T07:35:56.566Z,24.97
2023-11-18T07:37:33.825Z,27.10
2023-11-18T07:40:53.639Z,28.47
2023-11-18T07:46:31.719Z,26.50
2023-11-18T07:48:07.397Z,24.00
2023-11-18T07:49:39.308Z,23.47
2023-11-18T07:51:12.091Z,24.47
2023-11-18T07:54:37.506Z,16.93
2023-11-18T07:56:17.875Z,21.43
2023-11-18T07:57:49.915Z,24.63
2023-11-18T07:59:22.022Z,22.90
2023-11-18T08:00:53.779Z,24.20
2023-11-18T08:02:26.151Z,23.37
2023-11-18T08:03:57.971Z,21.70
2023-11-18T08:05:29.916Z,23.63
2023-11-18T08:07:01.691Z,21.10
2023-11-18T08:08:38.891Z,20.03
2023-11-18T08:10:13.947Z,18.47
2023-11-18T08:11:46.443Z,17.30
2023-11-18T08:13:18.289Z,22.00
2023-11-18T08:16:51.042Z,18.63
2023-11-18T08:18:25.027Z,22.30
2023-11-18T08:21:49.599Z,16.67
2023-11-18T08:23:21.459Z,19.80
2023-11-18T08:26:53.587Z,19.00
2023-11-18T08:28:32.586Z,19.40
2023-11-18T08:30:11.792Z,20.67
2023-11-18T08:31:45.217Z,22.23
2023-11-18T08:33:17.098Z,20.00
2023-11-18T08:34:52.114Z,18.00
2023-11-18T08:36:28.404Z,16.53
2023-11-18T08:38:01.692Z,15.30
2023-11-18T08:39:33.555Z,14.27
2023-11-18T08:41:09.967Z,18.67
2023-11-18T08:42:57.397Z,18.73
2023-11-18T08:44:29.663Z,18.30
2023-11-18T08:46:02.427Z,16.27
2023-11-18T08:49:30.754Z,14.37
2023-11-18T08:51:02.710Z,16.57
2023-11-18T08:52:34.935Z,14.40
2023-11-18T08:54:23.340Z,16.07
2023-11-18T08:58:04.812Z,15.90
2023-11-18T08:59:36.577Z,13.17
2023-11-18T09:01:15.911Z,17.80
2023-11-18T09:02:53.992Z,16.50
2023-11-18T09:04:26.914Z,19.50
2023-11-18T09:07:53.901Z,14.30
2023-11-18T09:09:28.636Z,14.47
2023-11-18T09:17:07.864Z,16.60
2023-11-18T09:22:26.693Z,13.07
2023-11-18T09:24:26.092Z,14.00
2023-11-18T09:25:58.022Z,15.67
2023-11-18T09:27:30.318Z,12.60
2023-11-18T09:29:02.810Z,18.53
2023-11-18T09:30:34.904Z,20.07
2023-11-18T09:32:07.304Z,16.67
2023-11-18T09:35:35.562Z,13.60
2023-11-18T09:37:10.700Z,15.40
2023-11-18T09:42:45.332Z,15.00
2023-11-18T09:44:19.324Z,13.50
2023-11-18T09:47:48.504Z,18.23
2023-11-18T09:49:27.991Z,11.87
2023-11-18T09:52:59.772Z,13.60
2023-11-18T09:54:53.756Z,11.30
2023-11-18T09:57:10.222Z,11.57
2023-11-18T09:58:54.326Z,10.03
2023-11-18T10:02:19.687Z,12.77
2023-11-18T10:06:08.360Z,13.57
2023-11-18T10:07:43.451Z,22.23
2023-11-18T10:11:14.938Z,11.73
2023-11-18T10:12:58.832Z,16.03
2023-11-18T10:16:27.975Z,13.70
2023-11-18T10:18:10.951Z,13.13
2023-11-18T10:20:04.614Z,14.57
2023-11-18T10:21:40.929Z,10.60
2023-11-18T10:25:25.113Z,11.80
2023-11-18T10:27:02.773Z,10.27
2023-11-18T10:28:38.668Z,10.30
2023-11-18T10:30:19.975Z,10.50
2023-11-18T10:32:09.452Z,8.93
2023-11-18T10:33:44.125Z,12.00
2023-11-18T10:35:16.267Z,15.27
2023-11-18T10:37:03.559Z,9.17
2023-11-18T10:38:50.585Z,10.63
2023-11-18T10:42:11.518Z,9.77
2023-11-18T10:43:45.526Z,9.70
2023-11-18T10:45:25.975Z,10.73
2023-11-18T10:47:01.039Z,8.50
2023-11-18T10:48:33.122Z,8.57
2023-11-18T10:54:06.546Z,11.87
2023-11-18T10:55:39.339Z,13.00
2023-11-18T10:57:11.171Z,13.60
2023-11-18T10:58:42.926Z,10.40
2023-11-18T11:02:25.498Z,10.00
2023-11-18T11:04:06.141Z,12.43
2023-11-18T11:05:42.768Z,9.90
2023-11-18T11:07:16.447Z,8.90
2023-11-18T11:08:49.275Z,11.53
2023-11-18T11:10:26.510Z,9.70
2023-11-18T11:12:05.198Z,10.60
2023-11-18T11:15:41.987Z,11.30
2023-11-18T11:17:45.000Z,12.10
2023-11-18T11:19:45.804Z,9.90
2023-11-18T11:21:29.181Z,10.00
2023-11-18T11:23:09.616Z,7.27
2023-11-18T11:25:18.313Z,8.30
2023-11-18T11:27:17.083Z,12.47
2023-11-18T11:29:09.125Z,8.77
2023-11-18T11:32:45.650Z,9.27
2023-11-18T11:34:21.882Z,8.13
2023-11-18T11:35:59.991Z,8.90
2023-11-18T11:37:35.713Z,7.47
2023-11-18T11:39:11.736Z,7.70
2023-11-18T11:42:30.469Z,9.20
2023-11-18T11:44:02.552Z,10.00
2023-11-18T11:45:35.644Z,11.10
2023-11-18T11:47:08.792Z,8.43
2023-11-18T11:48:44.225Z,16.50
2023-11-18T11:50:22.831Z,17.00
2023-11-18T11:52:04.494Z,14.03
2023-11-18T11:53:46.397Z,11.33
2023-11-18T11:55:54.088Z,10.83
2023-11-18T11:59:01.237Z,9.73
2023-11-18T12:00:36.020Z,7.20
2023-11-18T12:02:36.030Z,7.80
2023-11-18T12:04:22.068Z,5.73
2023-11-18T12:05:57.408Z,7.23
2023-11-18T12:07:29.602Z,9.37
2023-11-18T12:09:01.418Z,7.20
2023-11-18T12:10:33.486Z,7.20
2023-11-18T12:14:16.525Z,7.60
2023-11-18T12:16:05.719Z,6.17
2023-11-18T12:17:59.479Z,7.27
2023-11-18T12:19:37.602Z,7.83
2023-11-18T12:21:24.252Z,3.97
2023-11-18T12:23:18.746Z,5.70
2023-11-18T12:27:14.938Z,14.23
2023-11-18T12:28:46.871Z,5.07
2023-11-18T12:34:10.070Z,5.40
2023-11-18T12:38:01.190Z,7.17
2023-11-18T12:39:56.080Z,5.07
2023-11-18T12:41:39.188Z,3.10
2023-11-18T12:43:14.069Z,4.60
2023-11-18T12:45:00.566Z,3.20
2023-11-18T12:46:56.400Z,4.23
2023-11-18T12:52:22.626Z,3.20
2023-11-18T12:58:09.193Z,8.57
2023-11-18T12:59:43.557Z,3.90
2023-11-18T13:01:16.933Z,5.77
2023-11-18T13:02:48.949Z,4.13
2023-11-18T13:08:23.462Z,8.50
2023-11-18T13:13:44.922Z,2.00
2023-11-18T13:15:18.202Z,3.00
2023-11-18T13:16:54.224Z,3.20
2023-11-18T13:18:27.736Z,4.93
2023-11-18T13:21:52.192Z,3.93
2023-11-18T13:23:26.187Z,2.83
2023-11-18T13:26:55.635Z,2.37
2023-11-18T13:28:27.931Z,5.40
2023-11-18T13:31:46.894Z,2.40
2023-11-18T13:33:18.885Z,2.17
2023-11-18T13:34:51.803Z,1.93
2023-11-18T13:36:24.414Z,3.47
2023-11-18T13:39:55.721Z,2.40
2023-11-18T13:41:32.966Z,4.53
2023-11-18T13:43:09.498Z,2.57
2023-11-18T13:44:44.605Z,1.50
2023-11-18T13:46:19.480Z,4.50
2023-11-18T13:49:32.813Z,1.67
2023-11-18T13:51:09.114Z,1.70
2023-11-18T13:56:35.418Z,3.23
2023-11-18T13:58:07.559Z,1.70
2023-11-18T13:59:39.822Z,1.90
2023-11-18T14:01:13.522Z,3.33
2023-11-18T14:02:47.267Z,1.63
2023-11-18T14:04:19.323Z,2.30
2023-11-18T14:05:58.461Z,1.40
2023-11-18T14:13:46.304Z,2.90
2023-11-18T14:21:44.340Z,2.27
2023-11-18T14:23:16.407Z,2.00
2023-11-18T14:26:34.284Z,1.57
2023-11-18T14:28:17.093Z,1.83
2023-11-18T14:33:36.430Z,2.33
2023-11-18T14:37:31.267Z,2.30
2023-11-18T14:39:04.293Z,2.07
2023-11-18T14:40:36.083Z,1.93
2023-11-18T14:48:24.581Z,1.80
2023-11-18T15:05:23.096Z,3.63
2023-11-18T15:09:47.788Z,3.53
2023-11-18T15:20:15.327Z,4.63
2023-11-18T15:21:52.095Z,2.50
2023-11-18T15:29:16.080Z,3.53
2023-11-18T15:30:50.064Z,3.00
